Kinetic-One Castle Combe TT Series
Skip Navigation Links
14 June 2017
HyperLink
Page 1 of 2 (84 items)
[1]2
Pos
Bib No
Fav
Share
Photo
Name
Time
Category
Cat Pos
Gender
Gen Pos
Club
Pace
Split 1
G/Pos
Lap 1
G/Pos
Lap 2
G/Pos
Lap 3
G/Pos
Lap 4
G/Pos
Lap 5
G/Pos
193David JANES19:37.25Sen1Male1VELOTON30.6 m/hr1:33.5913:32.6113:37.8813:37.2813:38.7713:37.101
286Ben SKINNER20:08.10Sen2Male2BATH CC29.8 m/hr1:38.3733:37.7523:40.3123:44.6123:43.3923:43.662
394Mark THRELFALL20:29.11Sen3Male3TEAM BOTTRILL/HSS HIRE29.3 m/hr1:38.0823:41.3933:47.3633:47.3943:49.4443:45.443
468Tavis WALKER20:40.98Sen4Male4DRK RACE TEAM29.0 m/hr1:42.6563:47.5653:47.4043:46.7233:47.0933:49.554
580James COOK21:06.47Sen5Male5CYCOLOGY BIKES28.4 m/hr1:39.2043:48.0163:51.9273:54.1663:58.2873:54.886
691Jon PRIDHAM21:10.55Vet401Male6TEAMSPY28.3 m/hr1:46.69133:41.5743:50.6653:53.5853:59.7583:58.289
779Will CRUDGINGTON21:11.18Jun1Male7ZOOT ATHLOS TRIATHLON RACE TEAM28.3 m/hr1:45.68113:51.0273:54.9083:54.4273:51.5653:53.595
883Paul RYMAN21:21.25Sen6Male8FROME TRI28.1 m/hr1:43.3373:51.8183:51.8063:56.6383:57.9263:59.7411
992Brian GLYNN21:38.35Sen7Male9ZOOT ATHLOS TRIATHLON RACE TEAM27.7 m/hr1:47.46143:54.3593:57.42103:58.6994:02.39103:58.018
1070James FRITCHLEY21:45.77Sen8Male10TROWBRIDGE CC27.6 m/hr1:45.98124:01.47153:59.26114:01.14114:02.51113:55.397
1163James EACOTT21:45.98Sen9Male11 27.6 m/hr1:44.3993:58.96114:00.15124:02.44124:01.7393:58.3010
1290Martin ALDAM22:12.43Vet402Male12TROWBRIDGE CC27.0 m/hr1:55.18334:02.28163:56.6394:00.20104:09.59144:08.5315
1369Deacon CUTTERHAM22:17.53Sen10Male13VCB26.9 m/hr1:40.2253:57.10104:04.87154:09.42174:13.84224:12.0621
1489Doug HALL22:19.06Sen11Male14T3 TRIATHLON26.9 m/hr1:45.20104:03.42184:03.26134:08.20154:10.05164:08.9118
1588Jack POWIS22:19.63Jun2Male15RIDE 24/726.9 m/hr1:49.70184:00.81134:04.87144:06.71144:10.25174:07.2813
1687Jonathan GRIFFIN22:21.62Supvet501Male16CYCOLOGY BIKES26.8 m/hr1:44.2584:00.50124:06.09174:13.09224:09.78154:07.9014
1774Rob HALL22:24.79Vet403Male17SAS CC26.8 m/hr1:53.09294:01.01144:06.68184:04.80134:10.41184:08.7916
1882Luke CAMPBELL22:30.65Jun3Male18PERFORMANCE CYCLES26.7 m/hr1:52.30254:10.84244:04.89164:08.55164:07.31124:06.7512
1924Mike COX22:32.63Supvet601Male19CHIPPENHAM TRI26.6 m/hr1:50.64224:02.80174:09.03204:10.72214:10.62194:08.8017
2037Wayne OSMOND22:34.80Supvet502Male20SAS CC26.6 m/hr1:47.52154:07.13214:08.31194:09.93184:11.57204:10.3219
2181Graeme DAVIS22:37.58Vet404Male21DURSLEY ROAD CLUB26.5 m/hr1:49.90204:08.15224:09.43214:10.23204:09.12134:10.7320
2276Ian MOORE22:41.82Supvet503Male22PHIL KIBBLE COACHING26.4 m/hr1:49.20174:05.44194:10.95234:10.04194:13.43214:12.7422
2373Fiona PREW22:53.46Sen1Female1PRO VISION RACE TEAM26.2 m/hr1:57.5824:13.4714:15.4324:10.8214:11.0614:05.091
2462Caitlin PETERS23:05.92Jun1Female2I-TEAM CC26.0 m/hr1:54.5414:14.4124:15.0914:15.2324:15.6324:11.002
2564Mark COLLINS23:12.47Sen12Male23SAS CC25.9 m/hr1:56.25364:06.41204:12.50244:20.06274:22.07294:15.1725
2684Tom DUDDEN23:15.83Sen13Male24BATH AMPHIBIANS25.8 m/hr1:48.34164:18.19304:10.28224:14.94234:21.39274:22.6632
2775Richard BROOK23:17.03Vet405Male25 25.8 m/hr1:51.32234:12.64254:18.06274:18.41254:21.76284:14.8324
2885Keith PENNY23:17.21Vet406Male26FROME TRI25.8 m/hr1:53.00274:10.75234:13.44254:18.44264:21.14264:20.4330
2971Bob PEARCE23:19.11Supvet504Male27 25.7 m/hr1:51.53244:13.53274:17.02264:18.35244:20.60244:18.0727
3048Matthew BREWER23:21.30Sen14Male28WEST COUNTRY TRIATHLETES 25.7 m/hr1:49.74194:13.27264:21.03294:23.08304:15.88234:18.2828
3167Paul LAMBERT23:36.99Supvet505Male29CHIPPENHAM WHEELERS25.4 m/hr1:58.24374:18.18294:18.41284:24.46314:23.22304:14.4723
3255Simon PARTON23:39.05Sen15Male30COTSWOLD VELDRIJDEN 25.4 m/hr1:52.90264:17.73284:23.33304:21.77284:24.00314:19.3029
3347Tony FREER23:43.98Supvet506Male31DURSLEY RUNNING CLUB TRI TEAM25.3 m/hr1:55.12324:19.53324:25.64324:22.19294:20.74254:20.7431
3442Ray PERKINS24:07.75Supvet507Male32 24.9 m/hr2:05.50484:25.42354:23.41314:29.07334:26.77324:17.5726
3560Joanne JAGO24:12.60Sen2Female3PERFORMANCE CYCLES24.8 m/hr2:02.5054:28.7944:26.8734:28.2334:25.7334:20.473
3661Clive SHIPWAY24:18.17Vet407Male33 24.7 m/hr1:53.09284:25.24344:27.79344:28.25324:32.83364:30.9636
3758John BENJAMIN24:19.36Sen16Male34VC WALCOT 24.7 m/hr1:50.06214:18.28314:26.76334:33.26384:38.54404:32.4437
3877Chris MAXWELL24:19.45Vet408Male35CHIPPENHAM TRI24.7 m/hr1:54.78304:19.95334:28.37354:34.64414:33.03374:28.6735
3965Dave TOMLINSON24:34.31Supvet508Male36 24.4 m/hr1:54.94314:26.30364:28.96364:33.65394:36.30384:34.1442
4046Tim PURVEY24:35.86Sen17Male37 24.4 m/hr2:00.15414:33.73434:33.60394:33.09374:31.09344:24.1933
4172Ed RANDALL24:42.25Sen18Male38 24.3 m/hr1:55.41344:27.49374:31.78384:30.81344:41.26444:35.4943
4245Paul BELFIELD24:46.65Vet409Male39STONE WHEELERS24.2 m/hr2:09.73504:31.16394:29.26374:31.13354:32.51354:32.8439
4354Claire WESTON24:53.15Sen3Female4RAF CYCLING24.1 m/hr2:00.8344:26.7434:34.7644:40.0344:35.8444:34.934
4452Sam KENYON24:59.44Vet4010Male40FLYING MONK TRIATHLON CLUB24.0 m/hr2:00.90424:30.57384:34.48404:33.67404:40.91434:38.9045
4559Anthony SPRULES25:00.22Supvet602Male41FROME & DISTRICT WHEELERS24.0 m/hr2:01.51434:32.91424:36.53414:38.62444:37.20394:33.4441
4649Mark BROWN25:00.96Vet4011Male42WEST COUNTRY TRIATHLETES 24.0 m/hr1:58.53384:32.75414:38.35424:38.14424:39.83414:33.3540
4778Stu DINWOODIE25:12.52Supvet509Male43CHIPPENHAM TRI23.8 m/hr1:55.60354:31.83404:38.77434:41.17454:40.79424:44.3449
4839Derek THOMSON25:13.13Supvet5010Male44FLYING MONK TRIATHLON CLUB23.8 m/hr1:59.67394:40.00454:40.77454:38.26434:41.80454:32.6138
4951Matthew TIBBLES25:14.65Sen19Male45 23.8 m/hr2:11.61544:53.90534:40.48444:32.87364:27.67334:28.1134
5057Jacqueline WADSWORTH25:35.04Supvet501Female5SEVERN ROAD CLUB23.5 m/hr2:08.2774:43.9954:42.8554:41.0154:39.9654:38.935
Page 1 of 2 (84 items)
[1]2
fb

HyperLink Copyright (c) G Vincent, 2017